Terminal Aerodrome Forecast
Issued by NWS

Home | Current Version | Previous Version | Text Only | Print | Product List | Glossary Off
Versions: 1 2 3 4 5 6 7 8 9 10 11 12 13 14 15 16 17 18 19

000
FTUS41 KGYX 201900 AAA
TAFRKD
TAF AMD
KRKD 201918Z 2019/2118 19012KT P6SM SKC
     FM202300 23006KT P6SM SKC
     FM210500 VRB03KT P6SM BKN250
     FM211200 21008KT P6SM BKN250
      AMD LTD TO CLD VIS AND WIND=

USA.gov is the U.S. government's official web portal to all federal, state and local government web resources and services.